sensor_id;sensor_type;location;lat;lon;timestamp;temperature;humidity
41060;DHT22;26811;53.160;8.202;2022-12-18T00:01:36;-3.60;99.90
41060;DHT22;26811;53.160;8.202;2022-12-18T00:06:36;-3.60;99.90
41060;DHT22;26811;53.160;8.202;2022-12-18T00:11:37;-3.60;99.90
41060;DHT22;26811;53.160;8.202;2022-12-18T00:16:37;-3.50;99.90
41060;DHT22;26811;53.160;8.202;2022-12-18T00:21:38;-3.50;99.90
41060;DHT22;26811;53.160;8.202;2022-12-18T00:26:41;-3.60;99.90
41060;DHT22;26811;53.160;8.202;2022-12-18T00:31:42;-3.70;99.90
41060;DHT22;26811;53.160;8.202;2022-12-18T00:36:43;-3.70;99.90
41060;DHT22;26811;53.160;8.202;2022-12-18T00:41:43;-3.80;99.90
41060;DHT22;26811;53.160;8.202;2022-12-18T00:47:03;-3.90;99.90
41060;DHT22;26811;53.160;8.202;2022-12-18T00:52:03;-4.00;99.90
41060;DHT22;26811;53.160;8.202;2022-12-18T00:57:04;-4.10;99.90
41060;DHT22;26811;53.160;8.202;2022-12-18T01:02:04;-4.20;99.90
41060;DHT22;26811;53.160;8.202;2022-12-18T01:07:04;-4.40;99.90
41060;DHT22;26811;53.160;8.202;2022-12-18T01:12:05;-4.60;99.90
41060;DHT22;26811;53.160;8.202;2022-12-18T01:17:06;-4.70;99.90
41060;DHT22;26811;53.160;8.202;2022-12-18T01:22:06;-4.80;99.90
41060;DHT22;26811;53.160;8.202;2022-12-18T01:27:07;-4.80;99.90
41060;DHT22;26811;53.160;8.202;2022-12-18T01:32:07;-4.90;99.90
41060;DHT22;26811;53.160;8.202;2022-12-18T01:37:08;-5.00;99.90
41060;DHT22;26811;53.160;8.202;2022-12-18T01:42:10;-5.10;99.90
41060;DHT22;26811;53.160;8.202;2022-12-18T01:47:14;-5.20;99.90
41060;DHT22;26811;53.160;8.202;2022-12-18T01:52:15;-5.30;99.90
41060;DHT22;26811;53.160;8.202;2022-12-18T01:57:17;-5.30;99.90
41060;DHT22;26811;53.160;8.202;2022-12-18T02:02:17;-5.40;99.90
41060;DHT22;26811;53.160;8.202;2022-12-18T02:12:42;-5.50;99.90
41060;DHT22;26811;53.160;8.202;2022-12-18T02:22:50;-5.60;99.90
41060;DHT22;26811;53.160;8.202;2022-12-18T02:27:53;-5.70;99.90
41060;DHT22;26811;53.160;8.202;2022-12-18T02:32:56;-5.70;99.90
41060;DHT22;26811;53.160;8.202;2022-12-18T02:37:57;-5.70;99.90
41060;DHT22;26811;53.160;8.202;2022-12-18T02:43:11;-5.80;99.90
41060;DHT22;26811;53.160;8.202;2022-12-18T02:48:12;-5.80;99.90
41060;DHT22;26811;53.160;8.202;2022-12-18T02:53:22;-5.80;99.90
41060;DHT22;26811;53.160;8.202;2022-12-18T03:03:33;-5.90;99.90
41060;DHT22;26811;53.160;8.202;2022-12-18T03:08:36;-5.90;99.90
41060;DHT22;26811;53.160;8.202;2022-12-18T03:13:44;-5.90;99.90
41060;DHT22;26811;53.160;8.202;2022-12-18T03:18:51;-6.00;99.90
41060;DHT22;26811;53.160;8.202;2022-12-18T03:23:52;-6.00;99.90
41060;DHT22;26811;53.160;8.202;2022-12-18T03:29:01;-6.00;99.90
41060;DHT22;26811;53.160;8.202;2022-12-18T03:34:04;-6.00;99.90
41060;DHT22;26811;53.160;8.202;2022-12-18T03:39:05;-6.00;99.90
41060;DHT22;26811;53.160;8.202;2022-12-18T03:44:10;-6.10;99.90
41060;DHT22;26811;53.160;8.202;2022-12-18T03:49:12;-6.10;99.90
41060;DHT22;26811;53.160;8.202;2022-12-18T03:54:14;-6.20;99.90
41060;DHT22;26811;53.160;8.202;2022-12-18T03:59:15;-6.30;99.90
41060;DHT22;26811;53.160;8.202;2022-12-18T04:04:17;-6.30;99.90
41060;DHT22;26811;53.160;8.202;2022-12-18T04:09:18;-6.40;99.90
41060;DHT22;26811;53.160;8.202;2022-12-18T04:14:19;-6.50;99.90
41060;DHT22;26811;53.160;8.202;2022-12-18T04:19:19;-6.50;99.90
41060;DHT22;26811;53.160;8.202;2022-12-18T04:24:20;-6.50;99.90
41060;DHT22;26811;53.160;8.202;2022-12-18T04:29:20;-6.50;99.90
41060;DHT22;26811;53.160;8.202;2022-12-18T04:34:21;-6.50;99.90
41060;DHT22;26811;53.160;8.202;2022-12-18T04:39:21;-6.50;99.90
41060;DHT22;26811;53.160;8.202;2022-12-18T04:44:22;-6.50;99.90
41060;DHT22;26811;53.160;8.202;2022-12-18T04:49:22;-6.50;99.90
41060;DHT22;26811;53.160;8.202;2022-12-18T04:54:23;-6.50;99.90
41060;DHT22;26811;53.160;8.202;2022-12-18T04:59:23;-6.40;99.90
41060;DHT22;26811;53.160;8.202;2022-12-18T05:04:24;-6.40;99.90
41060;DHT22;26811;53.160;8.202;2022-12-18T05:09:24;-6.40;99.90
41060;DHT22;26811;53.160;8.202;2022-12-18T05:14:25;-6.40;99.90
41060;DHT22;26811;53.160;8.202;2022-12-18T05:19:25;-6.40;99.90
41060;DHT22;26811;53.160;8.202;2022-12-18T05:24:26;-6.30;99.90
41060;DHT22;26811;53.160;8.202;2022-12-18T05:29:26;-6.30;99.90
41060;DHT22;26811;53.160;8.202;2022-12-18T05:34:27;-6.30;99.90
41060;DHT22;26811;53.160;8.202;2022-12-18T05:39:27;-6.40;99.90
41060;DHT22;26811;53.160;8.202;2022-12-18T05:44:28;-6.30;99.90
41060;DHT22;26811;53.160;8.202;2022-12-18T05:49:28;-6.30;99.90
41060;DHT22;26811;53.160;8.202;2022-12-18T05:54:29;-6.30;99.90
41060;DHT22;26811;53.160;8.202;2022-12-18T05:59:29;-6.30;99.90
41060;DHT22;26811;53.160;8.202;2022-12-18T06:04:30;-6.40;99.90
41060;DHT22;26811;53.160;8.202;2022-12-18T06:09:30;-6.40;99.90
41060;DHT22;26811;53.160;8.202;2022-12-18T06:14:31;-6.40;99.90
41060;DHT22;26811;53.160;8.202;2022-12-18T06:19:31;-6.40;99.90
41060;DHT22;26811;53.160;8.202;2022-12-18T06:24:32;-6.30;99.90
41060;DHT22;26811;53.160;8.202;2022-12-18T06:29:33;-6.30;99.90
41060;DHT22;26811;53.160;8.202;2022-12-18T06:34:33;-6.40;99.90
41060;DHT22;26811;53.160;8.202;2022-12-18T06:39:34;-6.40;99.90
41060;DHT22;26811;53.160;8.202;2022-12-18T06:44:35;-6.40;99.90
41060;DHT22;26811;53.160;8.202;2022-12-18T06:49:35;-6.40;99.90
41060;DHT22;26811;53.160;8.202;2022-12-18T06:54:36;-6.30;99.90
41060;DHT22;26811;53.160;8.202;2022-12-18T06:59:36;-6.30;99.90
41060;DHT22;26811;53.160;8.202;2022-12-18T07:04:36;-6.30;99.90
41060;DHT22;26811;53.160;8.202;2022-12-18T07:09:37;-6.30;99.90
41060;DHT22;26811;53.160;8.202;2022-12-18T07:14:37;-6.30;99.90
41060;DHT22;26811;53.160;8.202;2022-12-18T07:19:38;-6.30;99.90
41060;DHT22;26811;53.160;8.202;2022-12-18T07:24:38;-6.30;99.90
41060;DHT22;26811;53.160;8.202;2022-12-18T07:29:39;-6.30;99.90
41060;DHT22;26811;53.160;8.202;2022-12-18T07:34:39;-6.30;99.90
41060;DHT22;26811;53.160;8.202;2022-12-18T07:39:40;-6.30;99.90
41060;DHT22;26811;53.160;8.202;2022-12-18T07:44:40;-6.30;99.90
41060;DHT22;26811;53.160;8.202;2022-12-18T07:49:41;-6.20;99.90
41060;DHT22;26811;53.160;8.202;2022-12-18T07:54:41;-6.30;99.90
41060;DHT22;26811;53.160;8.202;2022-12-18T07:59:42;-6.30;99.90
41060;DHT22;26811;53.160;8.202;2022-12-18T08:04:42;-6.20;99.90
41060;DHT22;26811;53.160;8.202;2022-12-18T08:09:43;-6.20;99.90
41060;DHT22;26811;53.160;8.202;2022-12-18T08:14:43;-6.10;99.90
41060;DHT22;26811;53.160;8.202;2022-12-18T08:19:44;-6.00;99.90
41060;DHT22;26811;53.160;8.202;2022-12-18T08:24:44;-5.90;99.90
41060;DHT22;26811;53.160;8.202;2022-12-18T08:29:45;-5.90;99.90
41060;DHT22;26811;53.160;8.202;2022-12-18T08:34:45;-5.80;99.90
41060;DHT22;26811;53.160;8.202;2022-12-18T08:39:46;-5.80;99.90
41060;DHT22;26811;53.160;8.202;2022-12-18T08:44:46;-5.70;99.90
41060;DHT22;26811;53.160;8.202;2022-12-18T08:49:47;-5.60;99.90
41060;DHT22;26811;53.160;8.202;2022-12-18T08:54:47;-5.40;99.90
41060;DHT22;26811;53.160;8.202;2022-12-18T08:59:47;-5.20;99.90
41060;DHT22;26811;53.160;8.202;2022-12-18T09:04:48;-5.00;99.90
41060;DHT22;26811;53.160;8.202;2022-12-18T09:09:48;-4.90;99.90
41060;DHT22;26811;53.160;8.202;2022-12-18T09:14:49;-4.60;99.90
41060;DHT22;26811;53.160;8.202;2022-12-18T09:19:49;-4.40;99.90
41060;DHT22;26811;53.160;8.202;2022-12-18T09:24:50;-4.10;99.90
41060;DHT22;26811;53.160;8.202;2022-12-18T09:29:51;-4.00;99.90
41060;DHT22;26811;53.160;8.202;2022-12-18T09:34:51;-3.80;99.90
41060;DHT22;26811;53.160;8.202;2022-12-18T09:39:52;-3.80;99.90
41060;DHT22;26811;53.160;8.202;2022-12-18T09:44:53;-3.70;99.90
41060;DHT22;26811;53.160;8.202;2022-12-18T09:55:37;-3.60;99.90
41060;DHT22;26811;53.160;8.202;2022-12-18T10:00:42;-3.50;99.90
41060;DHT22;26811;53.160;8.202;2022-12-18T10:05:46;-3.40;99.90
41060;DHT22;26811;53.160;8.202;2022-12-18T10:10:50;-3.30;99.90
41060;DHT22;26811;53.160;8.202;2022-12-18T10:16:00;-3.20;99.90
41060;DHT22;26811;53.160;8.202;2022-12-18T10:21:05;-3.10;99.90
41060;DHT22;26811;53.160;8.202;2022-12-18T10:26:10;-3.00;99.90
41060;DHT22;26811;53.160;8.202;2022-12-18T10:31:18;-2.90;99.90
41060;DHT22;26811;53.160;8.202;2022-12-18T10:36:19;-2.80;99.90
41060;DHT22;26811;53.160;8.202;2022-12-18T10:46:22;-2.80;99.90
41060;DHT22;26811;53.160;8.202;2022-12-18T10:51:29;-2.60;99.90
41060;DHT22;26811;53.160;8.202;2022-12-18T10:56:31;-2.40;99.90
41060;DHT22;26811;53.160;8.202;2022-12-18T11:12:16;-1.70;99.90
41060;DHT22;26811;53.160;8.202;2022-12-18T11:17:28;-1.30;99.90
41060;DHT22;26811;53.160;8.202;2022-12-18T11:22:31;-0.90;99.90
41060;DHT22;26811;53.160;8.202;2022-12-18T11:27:32;-0.60;99.90
41060;DHT22;26811;53.160;8.202;2022-12-18T11:32:37;-0.60;99.90
41060;DHT22;26811;53.160;8.202;2022-12-18T11:37:40;-0.30;99.90
41060;DHT22;26811;53.160;8.202;2022-12-18T11:42:50;-0.30;99.90
41060;DHT22;26811;53.160;8.202;2022-12-18T11:48:02;-0.30;99.90
41060;DHT22;26811;53.160;8.202;2022-12-18T11:53:09;-0.50;99.90
41060;DHT22;26811;53.160;8.202;2022-12-18T12:24:04;-1.20;99.90
41060;DHT22;26811;53.160;8.202;2022-12-18T12:29:23;-1.30;99.90
41060;DHT22;26811;53.160;8.202;2022-12-18T12:34:30;-1.30;99.90
41060;DHT22;26811;53.160;8.202;2022-12-18T12:39:36;-1.30;99.90
41060;DHT22;26811;53.160;8.202;2022-12-18T12:44:48;-1.30;99.90
41060;DHT22;26811;53.160;8.202;2022-12-18T12:49:50;-1.30;99.90
41060;DHT22;26811;53.160;8.202;2022-12-18T12:54:50;-1.20;99.90
41060;DHT22;26811;53.160;8.202;2022-12-18T13:00:12;-1.20;99.90
41060;DHT22;26811;53.160;8.202;2022-12-18T13:15:24;-1.10;99.90
41060;DHT22;26811;53.160;8.202;2022-12-18T13:20:25;-1.10;99.90
41060;DHT22;26811;53.160;8.202;2022-12-18T13:25:36;-1.20;99.90
41060;DHT22;26811;53.160;8.202;2022-12-18T13:30:41;-1.20;99.90
41060;DHT22;26811;53.160;8.202;2022-12-18T13:45:58;-1.30;99.90
41060;DHT22;26811;53.160;8.202;2022-12-18T13:51:06;-1.40;99.90
41060;DHT22;26811;53.160;8.202;2022-12-18T13:56:07;-1.50;99.90
41060;DHT22;26811;53.160;8.202;2022-12-18T14:01:23;-1.50;99.90
41060;DHT22;26811;53.160;8.202;2022-12-18T14:06:23;-1.50;99.90
41060;DHT22;26811;53.160;8.202;2022-12-18T14:11:24;-1.60;99.90
41060;DHT22;26811;53.160;8.202;2022-12-18T14:16:25;-1.60;99.90
41060;DHT22;26811;53.160;8.202;2022-12-18T14:21:28;-1.60;99.90
41060;DHT22;26811;53.160;8.202;2022-12-18T14:26:30;-1.70;99.90
41060;DHT22;26811;53.160;8.202;2022-12-18T14:31:31;-1.70;99.90
41060;DHT22;26811;53.160;8.202;2022-12-18T14:36:31;-1.80;99.90
41060;DHT22;26811;53.160;8.202;2022-12-18T14:41:32;-1.80;99.90
41060;DHT22;26811;53.160;8.202;2022-12-18T14:51:33;-1.90;99.90
41060;DHT22;26811;53.160;8.202;2022-12-18T14:56:35;-2.00;99.90
41060;DHT22;26811;53.160;8.202;2022-12-18T15:01:36;-2.00;99.90
41060;DHT22;26811;53.160;8.202;2022-12-18T15:06:38;-2.10;99.90
41060;DHT22;26811;53.160;8.202;2022-12-18T15:16:40;-2.10;99.90
41060;DHT22;26811;53.160;8.202;2022-12-18T15:21:42;-2.10;99.90
41060;DHT22;26811;53.160;8.202;2022-12-18T15:26:43;-2.00;99.90
41060;DHT22;26811;53.160;8.202;2022-12-18T15:31:43;-2.00;99.90
41060;DHT22;26811;53.160;8.202;2022-12-18T15:36:45;-1.90;99.90
41060;DHT22;26811;53.160;8.202;2022-12-18T15:41:46;-1.90;99.90
41060;DHT22;26811;53.160;8.202;2022-12-18T15:47:08;-1.90;99.90
41060;DHT22;26811;53.160;8.202;2022-12-18T15:52:09;-1.90;99.90
41060;DHT22;26811;53.160;8.202;2022-12-18T15:57:12;-1.90;99.90
41060;DHT22;26811;53.160;8.202;2022-12-18T16:02:25;-1.80;99.90
41060;DHT22;26811;53.160;8.202;2022-12-18T16:07:26;-1.70;99.90
41060;DHT22;26811;53.160;8.202;2022-12-18T16:12:26;-1.70;99.90
41060;DHT22;26811;53.160;8.202;2022-12-18T16:17:26;-1.70;99.90
41060;DHT22;26811;53.160;8.202;2022-12-18T16:22:28;-1.60;99.90
41060;DHT22;26811;53.160;8.202;2022-12-18T16:27:28;-1.60;99.90
41060;DHT22;26811;53.160;8.202;2022-12-18T16:32:29;-1.60;99.90
41060;DHT22;26811;53.160;8.202;2022-12-18T16:37:29;-1.60;99.90
41060;DHT22;26811;53.160;8.202;2022-12-18T16:42:30;-1.60;99.90
41060;DHT22;26811;53.160;8.202;2022-12-18T16:47:30;-1.60;99.90
41060;DHT22;26811;53.160;8.202;2022-12-18T16:52:31;-1.60;99.90
41060;DHT22;26811;53.160;8.202;2022-12-18T16:57:31;-1.50;99.90
41060;DHT22;26811;53.160;8.202;2022-12-18T17:02:32;-1.50;99.90
41060;DHT22;26811;53.160;8.202;2022-12-18T17:07:32;-1.40;99.90
41060;DHT22;26811;53.160;8.202;2022-12-18T17:12:33;-1.40;99.90
41060;DHT22;26811;53.160;8.202;2022-12-18T17:17:33;-1.40;99.90
41060;DHT22;26811;53.160;8.202;2022-12-18T17:22:35;-1.30;99.90
41060;DHT22;26811;53.160;8.202;2022-12-18T17:27:36;-1.30;99.90
41060;DHT22;26811;53.160;8.202;2022-12-18T17:32:36;-1.30;99.90
41060;DHT22;26811;53.160;8.202;2022-12-18T17:37:37;-1.20;99.90
41060;DHT22;26811;53.160;8.202;2022-12-18T17:42:37;-1.20;99.90
41060;DHT22;26811;53.160;8.202;2022-12-18T17:47:38;-1.20;99.90
41060;DHT22;26811;53.160;8.202;2022-12-18T17:52:38;-1.20;99.90
41060;DHT22;26811;53.160;8.202;2022-12-18T17:57:39;-1.10;99.90
41060;DHT22;26811;53.160;8.202;2022-12-18T18:02:39;-1.10;99.90
41060;DHT22;26811;53.160;8.202;2022-12-18T18:07:40;-1.00;99.90
41060;DHT22;26811;53.160;8.202;2022-12-18T18:12:40;-1.00;99.90
41060;DHT22;26811;53.160;8.202;2022-12-18T18:18:00;-1.00;99.90
41060;DHT22;26811;53.160;8.202;2022-12-18T18:23:00;-1.00;99.90
41060;DHT22;26811;53.160;8.202;2022-12-18T18:28:01;-0.90;99.90
41060;DHT22;26811;53.160;8.202;2022-12-18T18:33:01;-0.90;99.90
41060;DHT22;26811;53.160;8.202;2022-12-18T18:38:02;-0.90;99.90
41060;DHT22;26811;53.160;8.202;2022-12-18T18:43:03;-0.90;99.90
41060;DHT22;26811;53.160;8.202;2022-12-18T18:48:04;-0.80;99.90
41060;DHT22;26811;53.160;8.202;2022-12-18T18:53:04;-0.70;99.90
41060;DHT22;26811;53.160;8.202;2022-12-18T18:58:05;-0.70;99.90
41060;DHT22;26811;53.160;8.202;2022-12-18T19:03:05;-0.60;99.90
41060;DHT22;26811;53.160;8.202;2022-12-18T19:08:06;-0.50;99.90
41060;DHT22;26811;53.160;8.202;2022-12-18T19:13:13;-0.50;99.90
41060;DHT22;26811;53.160;8.202;2022-12-18T19:18:26;-0.40;99.90
41060;DHT22;26811;53.160;8.202;2022-12-18T19:23:27;-0.40;99.90
41060;DHT22;26811;53.160;8.202;2022-12-18T19:28:27;-0.30;99.90
41060;DHT22;26811;53.160;8.202;2022-12-18T19:33:28;-0.20;99.90
41060;DHT22;26811;53.160;8.202;2022-12-18T19:38:29;-0.20;99.90
41060;DHT22;26811;53.160;8.202;2022-12-18T19:43:29;-0.20;99.90
41060;DHT22;26811;53.160;8.202;2022-12-18T19:48:31;-0.10;99.90
41060;DHT22;26811;53.160;8.202;2022-12-18T19:53:32;-0.10;99.90
41060;DHT22;26811;53.160;8.202;2022-12-18T19:58:33;-0.10;99.90
41060;DHT22;26811;53.160;8.202;2022-12-18T20:03:33;0.00;99.90
41060;DHT22;26811;53.160;8.202;2022-12-18T20:08:34;-0.10;99.90
41060;DHT22;26811;53.160;8.202;2022-12-18T20:13:34;0.00;99.90
41060;DHT22;26811;53.160;8.202;2022-12-18T20:18:35;0.00;99.90
41060;DHT22;26811;53.160;8.202;2022-12-18T20:23:36;0.00;99.90
41060;DHT22;26811;53.160;8.202;2022-12-18T20:28:36;0.00;99.90
41060;DHT22;26811;53.160;8.202;2022-12-18T20:33:40;0.00;99.90
41060;DHT22;26811;53.160;8.202;2022-12-18T20:38:41;0.10;99.90
41060;DHT22;26811;53.160;8.202;2022-12-18T20:43:42;0.00;99.90
41060;DHT22;26811;53.160;8.202;2022-12-18T20:48:42;0.10;99.90
41060;DHT22;26811;53.160;8.202;2022-12-18T20:53:44;0.10;99.90
41060;DHT22;26811;53.160;8.202;2022-12-18T20:58:44;0.10;99.90
41060;DHT22;26811;53.160;8.202;2022-12-18T21:03:45;0.00;99.90
41060;DHT22;26811;53.160;8.202;2022-12-18T21:08:46;0.10;99.90
41060;DHT22;26811;53.160;8.202;2022-12-18T21:13:47;0.10;99.90
41060;DHT22;26811;53.160;8.202;2022-12-18T21:18:47;0.10;99.90
41060;DHT22;26811;53.160;8.202;2022-12-18T21:23:51;0.10;99.90
41060;DHT22;26811;53.160;8.202;2022-12-18T21:28:52;0.10;99.90
41060;DHT22;26811;53.160;8.202;2022-12-18T21:33:54;0.10;99.90
41060;DHT22;26811;53.160;8.202;2022-12-18T21:38:56;0.10;99.90
41060;DHT22;26811;53.160;8.202;2022-12-18T21:43:57;0.10;99.90
41060;DHT22;26811;53.160;8.202;2022-12-18T21:49:06;0.10;99.90
41060;DHT22;26811;53.160;8.202;2022-12-18T21:54:07;0.00;99.90
41060;DHT22;26811;53.160;8.202;2022-12-18T21:59:08;0.10;99.90
41060;DHT22;26811;53.160;8.202;2022-12-18T22:04:09;0.10;99.90
41060;DHT22;26811;53.160;8.202;2022-12-18T22:09:10;0.20;99.90
41060;DHT22;26811;53.160;8.202;2022-12-18T22:14:11;0.20;99.90
41060;DHT22;26811;53.160;8.202;2022-12-18T22:19:12;0.20;99.90
41060;DHT22;26811;53.160;8.202;2022-12-18T22:24:14;0.30;99.90
41060;DHT22;26811;53.160;8.202;2022-12-18T22:29:24;0.30;99.90
41060;DHT22;26811;53.160;8.202;2022-12-18T22:34:43;0.30;99.90
41060;DHT22;26811;53.160;8.202;2022-12-18T22:39:44;0.40;99.90
41060;DHT22;26811;53.160;8.202;2022-12-18T22:44:45;0.40;99.90
41060;DHT22;26811;53.160;8.202;2022-12-18T22:49:45;0.50;99.90
41060;DHT22;26811;53.160;8.202;2022-12-18T22:54:46;0.50;99.90
41060;DHT22;26811;53.160;8.202;2022-12-18T22:59:46;0.50;99.90
41060;DHT22;26811;53.160;8.202;2022-12-18T23:04:47;0.50;99.90
41060;DHT22;26811;53.160;8.202;2022-12-18T23:09:48;0.60;99.90
41060;DHT22;26811;53.160;8.202;2022-12-18T23:14:49;0.60;99.90
41060;DHT22;26811;53.160;8.202;2022-12-18T23:19:50;0.60;99.90
41060;DHT22;26811;53.160;8.202;2022-12-18T23:24:50;0.60;99.90
41060;DHT22;26811;53.160;8.202;2022-12-18T23:29:51;0.70;99.90
41060;DHT22;26811;53.160;8.202;2022-12-18T23:34:52;0.70;99.90
41060;DHT22;26811;53.160;8.202;2022-12-18T23:39:52;0.70;99.90
41060;DHT22;26811;53.160;8.202;2022-12-18T23:44:53;0.70;99.90
41060;DHT22;26811;53.160;8.202;2022-12-18T23:49:53;0.80;99.90
41060;DHT22;26811;53.160;8.202;2022-12-18T23:54:54;0.80;99.90
41060;DHT22;26811;53.160;8.202;2022-12-18T23:59:55;0.80;99.90
